sensor_id;sensor_type;location;lat;lon;timestamp;temperature;humidity
14170;DHT22;63889;50.596;8.690;2023-02-26T00:01:40;2.50;99.90
14170;DHT22;63889;50.596;8.690;2023-02-26T00:04:07;2.70;99.90
14170;DHT22;63889;50.596;8.690;2023-02-26T00:06:35;2.80;99.90
14170;DHT22;63889;50.596;8.690;2023-02-26T00:09:05;2.90;99.90
14170;DHT22;63889;50.596;8.690;2023-02-26T00:11:31;2.80;99.90
14170;DHT22;63889;50.596;8.690;2023-02-26T00:13:58;2.90;99.90
14170;DHT22;63889;50.596;8.690;2023-02-26T00:16:28;2.90;99.90
14170;DHT22;63889;50.596;8.690;2023-02-26T00:18:59;2.90;99.90
14170;DHT22;63889;50.596;8.690;2023-02-26T00:21:27;2.90;99.90
14170;DHT22;63889;50.596;8.690;2023-02-26T00:23:53;2.90;99.90
14170;DHT22;63889;50.596;8.690;2023-02-26T00:26:19;2.80;99.90
14170;DHT22;63889;50.596;8.690;2023-02-26T00:28:45;2.80;99.90
14170;DHT22;63889;50.596;8.690;2023-02-26T00:31:13;2.90;99.90
14170;DHT22;63889;50.596;8.690;2023-02-26T00:33:40;3.00;99.90
14170;DHT22;63889;50.596;8.690;2023-02-26T00:38:44;2.60;99.90
14170;DHT22;63889;50.596;8.690;2023-02-26T00:41:11;2.70;99.90
14170;DHT22;63889;50.596;8.690;2023-02-26T00:43:37;2.80;99.90
14170;DHT22;63889;50.596;8.690;2023-02-26T00:51:51;2.90;99.90
14170;DHT22;63889;50.596;8.690;2023-02-26T00:54:28;2.80;99.90
14170;DHT22;63889;50.596;8.690;2023-02-26T00:56:55;2.60;99.90
14170;DHT22;63889;50.596;8.690;2023-02-26T00:59:22;2.60;99.90
14170;DHT22;63889;50.596;8.690;2023-02-26T01:01:49;2.60;99.90
14170;DHT22;63889;50.596;8.690;2023-02-26T01:04:17;2.70;99.90
14170;DHT22;63889;50.596;8.690;2023-02-26T01:06:54;2.80;99.90
14170;DHT22;63889;50.596;8.690;2023-02-26T01:11:59;2.80;99.90
14170;DHT22;63889;50.596;8.690;2023-02-26T01:14:27;2.80;99.90
14170;DHT22;63889;50.596;8.690;2023-02-26T01:19:40;2.70;99.90
14170;DHT22;63889;50.596;8.690;2023-02-26T01:22:30;2.80;99.90
14170;DHT22;63889;50.596;8.690;2023-02-26T01:25:04;2.80;99.90
14170;DHT22;63889;50.596;8.690;2023-02-26T01:27:33;2.70;99.90
14170;DHT22;63889;50.596;8.690;2023-02-26T01:29:59;2.70;99.90
14170;DHT22;63889;50.596;8.690;2023-02-26T01:35:04;2.70;99.90
14170;DHT22;63889;50.596;8.690;2023-02-26T01:37:47;2.60;99.90
14170;DHT22;63889;50.596;8.690;2023-02-26T01:43:16;2.70;99.90
14170;DHT22;63889;50.596;8.690;2023-02-26T01:45:56;2.50;99.90
14170;DHT22;63889;50.596;8.690;2023-02-26T01:51:10;2.60;99.90
14170;DHT22;63889;50.596;8.690;2023-02-26T01:53:36;2.50;99.90
14170;DHT22;63889;50.596;8.690;2023-02-26T01:56:05;2.40;99.90
14170;DHT22;63889;50.596;8.690;2023-02-26T01:58:35;2.30;99.90
14170;DHT22;63889;50.596;8.690;2023-02-26T02:01:02;2.30;99.90
14170;DHT22;63889;50.596;8.690;2023-02-26T02:03:31;2.30;99.90
14170;DHT22;63889;50.596;8.690;2023-02-26T02:06:03;2.30;99.90
14170;DHT22;63889;50.596;8.690;2023-02-26T02:08:31;2.20;99.90
14170;DHT22;63889;50.596;8.690;2023-02-26T02:11:00;2.30;99.90
14170;DHT22;63889;50.596;8.690;2023-02-26T02:16:20;2.30;99.90
14170;DHT22;63889;50.596;8.690;2023-02-26T02:18:55;2.30;99.90
14170;DHT22;63889;50.596;8.690;2023-02-26T02:24:03;2.40;99.90
14170;DHT22;63889;50.596;8.690;2023-02-26T02:26:51;2.20;99.90
14170;DHT22;63889;50.596;8.690;2023-02-26T02:32:01;2.30;99.90
14170;DHT22;63889;50.596;8.690;2023-02-26T02:34:36;2.10;99.90
14170;DHT22;63889;50.596;8.690;2023-02-26T02:39:46;2.20;99.90
14170;DHT22;63889;50.596;8.690;2023-02-26T02:42:34;2.10;99.90
14170;DHT22;63889;50.596;8.690;2023-02-26T02:45:08;2.10;99.90
14170;DHT22;63889;50.596;8.690;2023-02-26T02:47:37;2.10;99.90
14170;DHT22;63889;50.596;8.690;2023-02-26T02:50:10;2.20;99.90
14170;DHT22;63889;50.596;8.690;2023-02-26T02:52:47;2.20;99.90
14170;DHT22;63889;50.596;8.690;2023-02-26T02:55:20;2.10;99.90
14170;DHT22;63889;50.596;8.690;2023-02-26T03:01:00;2.10;99.90
14170;DHT22;63889;50.596;8.690;2023-02-26T03:03:34;2.20;99.90
14170;DHT22;63889;50.596;8.690;2023-02-26T03:06:01;2.00;99.90
14170;DHT22;63889;50.596;8.690;2023-02-26T03:08:30;2.00;99.90
14170;DHT22;63889;50.596;8.690;2023-02-26T03:10:58;2.10;99.90
14170;DHT22;63889;50.596;8.690;2023-02-26T03:13:25;2.00;99.90
14170;DHT22;63889;50.596;8.690;2023-02-26T03:18:59;1.90;99.90
14170;DHT22;63889;50.596;8.690;2023-02-26T03:21:37;1.90;99.90
14170;DHT22;63889;50.596;8.690;2023-02-26T03:27:27;2.00;99.90
14170;DHT22;63889;50.596;8.690;2023-02-26T03:30:02;2.10;99.90
14170;DHT22;63889;50.596;8.690;2023-02-26T03:35:17;1.90;99.90
14170;DHT22;63889;50.596;8.690;2023-02-26T03:37:49;2.10;99.90
14170;DHT22;63889;50.596;8.690;2023-02-26T03:45:32;2.00;99.90
14170;DHT22;63889;50.596;8.690;2023-02-26T03:48:00;1.90;99.90
14170;DHT22;63889;50.596;8.690;2023-02-26T03:53:35;2.00;99.90
14170;DHT22;63889;50.596;8.690;2023-02-26T03:56:15;2.00;99.90
14170;DHT22;63889;50.596;8.690;2023-02-26T03:58:42;2.10;99.90
14170;DHT22;63889;50.596;8.690;2023-02-26T04:01:16;2.00;99.90
14170;DHT22;63889;50.596;8.690;2023-02-26T04:04:01;2.10;99.90
14170;DHT22;63889;50.596;8.690;2023-02-26T04:06:29;2.10;99.90
14170;DHT22;63889;50.596;8.690;2023-02-26T04:08:56;2.10;99.90
14170;DHT22;63889;50.596;8.690;2023-02-26T04:11:22;2.20;99.90
14170;DHT22;63889;50.596;8.690;2023-02-26T04:13:50;2.10;99.90
14170;DHT22;63889;50.596;8.690;2023-02-26T04:16:15;2.10;99.90
14170;DHT22;63889;50.596;8.690;2023-02-26T04:18:41;2.10;99.90
14170;DHT22;63889;50.596;8.690;2023-02-26T04:21:11;2.20;99.90
14170;DHT22;63889;50.596;8.690;2023-02-26T04:23:37;2.20;99.90
14170;DHT22;63889;50.596;8.690;2023-02-26T04:26:02;2.20;99.90
14170;DHT22;63889;50.596;8.690;2023-02-26T04:28:28;2.20;99.90
14170;DHT22;63889;50.596;8.690;2023-02-26T04:30:54;2.20;99.90
14170;DHT22;63889;50.596;8.690;2023-02-26T04:33:20;2.00;99.90
14170;DHT22;63889;50.596;8.690;2023-02-26T04:35:47;2.00;99.90
14170;DHT22;63889;50.596;8.690;2023-02-26T04:38:13;2.00;99.90
14170;DHT22;63889;50.596;8.690;2023-02-26T04:40:38;1.90;99.90
14170;DHT22;63889;50.596;8.690;2023-02-26T04:43:04;2.00;99.90
14170;DHT22;63889;50.596;8.690;2023-02-26T04:45:29;1.90;99.90
14170;DHT22;63889;50.596;8.690;2023-02-26T04:47:55;1.80;99.90
14170;DHT22;63889;50.596;8.690;2023-02-26T04:50:20;1.80;99.90
14170;DHT22;63889;50.596;8.690;2023-02-26T04:52:46;1.80;99.90
14170;DHT22;63889;50.596;8.690;2023-02-26T04:55:11;1.80;99.90
14170;DHT22;63889;50.596;8.690;2023-02-26T04:57:37;1.60;99.90
14170;DHT22;63889;50.596;8.690;2023-02-26T05:00:03;1.70;99.90
14170;DHT22;63889;50.596;8.690;2023-02-26T05:02:32;1.60;99.90
14170;DHT22;63889;50.596;8.690;2023-02-26T05:04:57;1.50;99.90
14170;DHT22;63889;50.596;8.690;2023-02-26T05:07:23;1.60;99.90
14170;DHT22;63889;50.596;8.690;2023-02-26T05:09:48;1.70;99.90
14170;DHT22;63889;50.596;8.690;2023-02-26T05:12:14;1.70;99.90
14170;DHT22;63889;50.596;8.690;2023-02-26T05:14:40;1.50;99.90
14170;DHT22;63889;50.596;8.690;2023-02-26T05:17:05;1.60;99.90
14170;DHT22;63889;50.596;8.690;2023-02-26T05:19:31;1.60;99.90
14170;DHT22;63889;50.596;8.690;2023-02-26T05:21:56;1.70;99.90
14170;DHT22;63889;50.596;8.690;2023-02-26T05:24:22;1.80;99.90
14170;DHT22;63889;50.596;8.690;2023-02-26T05:26:47;1.90;99.90
14170;DHT22;63889;50.596;8.690;2023-02-26T05:29:13;1.90;99.90
14170;DHT22;63889;50.596;8.690;2023-02-26T05:31:38;1.90;99.90
14170;DHT22;63889;50.596;8.690;2023-02-26T05:34:04;1.90;99.90
14170;DHT22;63889;50.596;8.690;2023-02-26T05:36:30;1.90;99.90
14170;DHT22;63889;50.596;8.690;2023-02-26T05:38:55;1.90;99.90
14170;DHT22;63889;50.596;8.690;2023-02-26T05:41:21;2.00;99.90
14170;DHT22;63889;50.596;8.690;2023-02-26T05:43:46;2.10;99.90
14170;DHT22;63889;50.596;8.690;2023-02-26T05:46:12;2.00;99.90
14170;DHT22;63889;50.596;8.690;2023-02-26T05:48:38;2.00;99.90
14170;DHT22;63889;50.596;8.690;2023-02-26T05:51:04;1.90;99.90
14170;DHT22;63889;50.596;8.690;2023-02-26T05:53:29;1.90;99.90
14170;DHT22;63889;50.596;8.690;2023-02-26T05:55:55;1.90;99.90
14170;DHT22;63889;50.596;8.690;2023-02-26T05:58:20;2.00;99.90
14170;DHT22;63889;50.596;8.690;2023-02-26T06:00:46;1.90;99.90
14170;DHT22;63889;50.596;8.690;2023-02-26T06:03:12;1.90;99.90
14170;DHT22;63889;50.596;8.690;2023-02-26T06:05:37;2.00;99.90
14170;DHT22;63889;50.596;8.690;2023-02-26T06:08:04;2.00;99.90
14170;DHT22;63889;50.596;8.690;2023-02-26T06:10:30;2.00;99.90
14170;DHT22;63889;50.596;8.690;2023-02-26T06:12:56;2.10;99.90
14170;DHT22;63889;50.596;8.690;2023-02-26T06:15:21;2.20;99.90
14170;DHT22;63889;50.596;8.690;2023-02-26T06:17:47;2.20;99.90
14170;DHT22;63889;50.596;8.690;2023-02-26T06:20:13;2.20;99.90
14170;DHT22;63889;50.596;8.690;2023-02-26T06:22:38;2.20;99.90
14170;DHT22;63889;50.596;8.690;2023-02-26T06:25:04;2.30;99.90
14170;DHT22;63889;50.596;8.690;2023-02-26T06:27:30;2.30;99.90
14170;DHT22;63889;50.596;8.690;2023-02-26T06:29:55;2.30;99.90
14170;DHT22;63889;50.596;8.690;2023-02-26T06:32:21;2.30;99.90
14170;DHT22;63889;50.596;8.690;2023-02-26T06:34:47;2.20;99.90
14170;DHT22;63889;50.596;8.690;2023-02-26T06:37:12;2.30;99.90
14170;DHT22;63889;50.596;8.690;2023-02-26T06:39:38;2.20;99.90
14170;DHT22;63889;50.596;8.690;2023-02-26T06:42:03;2.10;99.90
14170;DHT22;63889;50.596;8.690;2023-02-26T06:44:29;2.10;99.90
14170;DHT22;63889;50.596;8.690;2023-02-26T06:46:55;2.00;99.90
14170;DHT22;63889;50.596;8.690;2023-02-26T06:49:20;2.00;99.90
14170;DHT22;63889;50.596;8.690;2023-02-26T06:51:46;1.90;99.90
14170;DHT22;63889;50.596;8.690;2023-02-26T06:54:11;2.00;99.90
14170;DHT22;63889;50.596;8.690;2023-02-26T06:56:37;2.10;99.90
14170;DHT22;63889;50.596;8.690;2023-02-26T06:59:02;2.00;99.90
14170;DHT22;63889;50.596;8.690;2023-02-26T07:01:28;2.00;99.90
14170;DHT22;63889;50.596;8.690;2023-02-26T07:03:56;1.80;99.90
14170;DHT22;63889;50.596;8.690;2023-02-26T07:06:21;1.80;99.90
14170;DHT22;63889;50.596;8.690;2023-02-26T07:08:47;1.90;99.90
14170;DHT22;63889;50.596;8.690;2023-02-26T07:11:12;2.00;99.90
14170;DHT22;63889;50.596;8.690;2023-02-26T07:13:39;2.00;99.90
14170;DHT22;63889;50.596;8.690;2023-02-26T07:16:04;1.90;99.90
14170;DHT22;63889;50.596;8.690;2023-02-26T07:18:35;1.90;99.90
14170;DHT22;63889;50.596;8.690;2023-02-26T07:21:02;2.00;99.90
14170;DHT22;63889;50.596;8.690;2023-02-26T07:23:28;2.10;99.90
14170;DHT22;63889;50.596;8.690;2023-02-26T07:25:54;2.10;99.90
14170;DHT22;63889;50.596;8.690;2023-02-26T07:28:22;2.20;99.90
14170;DHT22;63889;50.596;8.690;2023-02-26T07:30:47;2.20;99.90
14170;DHT22;63889;50.596;8.690;2023-02-26T07:33:13;2.30;99.90
14170;DHT22;63889;50.596;8.690;2023-02-26T07:35:39;2.20;99.90
14170;DHT22;63889;50.596;8.690;2023-02-26T07:38:05;2.10;99.90
14170;DHT22;63889;50.596;8.690;2023-02-26T07:40:31;2.20;99.90
14170;DHT22;63889;50.596;8.690;2023-02-26T07:42:56;2.30;99.90
14170;DHT22;63889;50.596;8.690;2023-02-26T07:45:22;2.40;99.90
14170;DHT22;63889;50.596;8.690;2023-02-26T07:47:52;2.40;99.90
14170;DHT22;63889;50.596;8.690;2023-02-26T07:50:19;2.40;99.90
14170;DHT22;63889;50.596;8.690;2023-02-26T07:52:45;2.40;99.90
14170;DHT22;63889;50.596;8.690;2023-02-26T07:55:13;2.40;99.90
14170;DHT22;63889;50.596;8.690;2023-02-26T07:57:38;2.50;99.90
14170;DHT22;63889;50.596;8.690;2023-02-26T08:00:05;2.50;99.90
14170;DHT22;63889;50.596;8.690;2023-02-26T08:02:30;2.30;99.90
14170;DHT22;63889;50.596;8.690;2023-02-26T08:04:56;2.10;99.90
14170;DHT22;63889;50.596;8.690;2023-02-26T08:07:22;2.10;99.90
14170;DHT22;63889;50.596;8.690;2023-02-26T08:09:47;2.20;99.90
14170;DHT22;63889;50.596;8.690;2023-02-26T08:12:13;2.10;99.90
14170;DHT22;63889;50.596;8.690;2023-02-26T08:14:39;2.30;99.90
14170;DHT22;63889;50.596;8.690;2023-02-26T08:17:09;2.30;99.90
14170;DHT22;63889;50.596;8.690;2023-02-26T08:19:36;2.30;99.90
14170;DHT22;63889;50.596;8.690;2023-02-26T08:22:01;2.20;99.90
14170;DHT22;63889;50.596;8.690;2023-02-26T08:24:27;2.30;99.90
14170;DHT22;63889;50.596;8.690;2023-02-26T08:26:52;2.40;99.90
14170;DHT22;63889;50.596;8.690;2023-02-26T08:29:18;2.20;99.90
14170;DHT22;63889;50.596;8.690;2023-02-26T08:31:44;2.20;99.90
14170;DHT22;63889;50.596;8.690;2023-02-26T08:34:09;2.30;99.90
14170;DHT22;63889;50.596;8.690;2023-02-26T08:36:35;2.30;99.90
14170;DHT22;63889;50.596;8.690;2023-02-26T08:39:01;2.40;99.90
14170;DHT22;63889;50.596;8.690;2023-02-26T08:41:26;2.50;99.90
14170;DHT22;63889;50.596;8.690;2023-02-26T08:43:54;2.50;99.90
14170;DHT22;63889;50.596;8.690;2023-02-26T08:46:20;2.60;99.90
14170;DHT22;63889;50.596;8.690;2023-02-26T08:48:45;2.60;99.90
14170;DHT22;63889;50.596;8.690;2023-02-26T08:51:11;2.50;99.90
14170;DHT22;63889;50.596;8.690;2023-02-26T08:53:37;2.60;99.90
14170;DHT22;63889;50.596;8.690;2023-02-26T08:56:04;2.60;99.90
14170;DHT22;63889;50.596;8.690;2023-02-26T08:58:30;2.50;99.90
14170;DHT22;63889;50.596;8.690;2023-02-26T09:00:55;2.60;99.90
14170;DHT22;63889;50.596;8.690;2023-02-26T09:03:21;2.70;99.90
14170;DHT22;63889;50.596;8.690;2023-02-26T09:05:47;2.70;99.90
14170;DHT22;63889;50.596;8.690;2023-02-26T09:08:12;2.60;99.90
14170;DHT22;63889;50.596;8.690;2023-02-26T09:10:40;2.60;99.90
14170;DHT22;63889;50.596;8.690;2023-02-26T09:13:06;2.50;99.90
14170;DHT22;63889;50.596;8.690;2023-02-26T09:15:31;2.50;99.90
14170;DHT22;63889;50.596;8.690;2023-02-26T09:17:57;2.40;99.90
14170;DHT22;63889;50.596;8.690;2023-02-26T09:20:22;2.50;99.90
14170;DHT22;63889;50.596;8.690;2023-02-26T09:22:48;2.50;99.90
14170;DHT22;63889;50.596;8.690;2023-02-26T09:25:15;2.70;99.90
14170;DHT22;63889;50.596;8.690;2023-02-26T09:27:40;2.50;99.90
14170;DHT22;63889;50.596;8.690;2023-02-26T09:30:06;2.40;99.90
14170;DHT22;63889;50.596;8.690;2023-02-26T09:32:32;2.40;99.90
14170;DHT22;63889;50.596;8.690;2023-02-26T09:34:58;2.50;99.90
14170;DHT22;63889;50.596;8.690;2023-02-26T09:37:23;2.70;99.90
14170;DHT22;63889;50.596;8.690;2023-02-26T09:39:49;2.70;99.90
14170;DHT22;63889;50.596;8.690;2023-02-26T09:45:01;2.90;99.90
14170;DHT22;63889;50.596;8.690;2023-02-26T09:47:32;3.10;99.90
14170;DHT22;63889;50.596;8.690;2023-02-26T09:50:12;3.20;99.90
14170;DHT22;63889;50.596;8.690;2023-02-26T09:52:53;3.40;99.90
14170;DHT22;63889;50.596;8.690;2023-02-26T09:55:27;3.60;99.90
14170;DHT22;63889;50.596;8.690;2023-02-26T09:57:58;3.80;99.90
14170;DHT22;63889;50.596;8.690;2023-02-26T10:03:15;4.30;99.90
14170;DHT22;63889;50.596;8.690;2023-02-26T10:08:18;4.60;99.90
14170;DHT22;63889;50.596;8.690;2023-02-26T10:13:24;5.00;99.90
14170;DHT22;63889;50.596;8.690;2023-02-26T10:15:56;5.10;99.90
14170;DHT22;63889;50.596;8.690;2023-02-26T10:18:31;5.20;99.90
14170;DHT22;63889;50.596;8.690;2023-02-26T10:21:09;5.20;99.90
14170;DHT22;63889;50.596;8.690;2023-02-26T10:23:54;5.20;99.90
14170;DHT22;63889;50.596;8.690;2023-02-26T10:26:30;5.50;99.90
14170;DHT22;63889;50.596;8.690;2023-02-26T10:29:29;5.70;99.90
14170;DHT22;63889;50.596;8.690;2023-02-26T10:32:07;5.50;99.90
14170;DHT22;63889;50.596;8.690;2023-02-26T10:34:55;5.40;99.90
14170;DHT22;63889;50.596;8.690;2023-02-26T10:37:56;5.20;99.90
14170;DHT22;63889;50.596;8.690;2023-02-26T10:40:33;5.10;99.90
14170;DHT22;63889;50.596;8.690;2023-02-26T10:48:47;5.20;99.90
14170;DHT22;63889;50.596;8.690;2023-02-26T10:51:19;5.10;99.90
14170;DHT22;63889;50.596;8.690;2023-02-26T10:53:53;5.30;99.90
14170;DHT22;63889;50.596;8.690;2023-02-26T10:56:31;5.80;99.90
14170;DHT22;63889;50.596;8.690;2023-02-26T10:58:58;6.10;99.90
14170;DHT22;63889;50.596;8.690;2023-02-26T11:01:25;5.90;99.90
14170;DHT22;63889;50.596;8.690;2023-02-26T11:06:30;6.40;99.90
14170;DHT22;63889;50.596;8.690;2023-02-26T11:08:57;6.50;99.90
14170;DHT22;63889;50.596;8.690;2023-02-26T11:11:50;6.30;99.90
14170;DHT22;63889;50.596;8.690;2023-02-26T11:14:16;5.90;99.90
14170;DHT22;63889;50.596;8.690;2023-02-26T11:16:49;5.50;99.90
14170;DHT22;63889;50.596;8.690;2023-02-26T11:19:21;5.40;99.90
14170;DHT22;63889;50.596;8.690;2023-02-26T11:21:49;5.60;99.90
14170;DHT22;63889;50.596;8.690;2023-02-26T11:26:59;5.40;99.90
14170;DHT22;63889;50.596;8.690;2023-02-26T11:29:39;5.20;99.90
14170;DHT22;63889;50.596;8.690;2023-02-26T11:32:06;5.40;99.90
14170;DHT22;63889;50.596;8.690;2023-02-26T11:34:38;5.90;99.90
14170;DHT22;63889;50.596;8.690;2023-02-26T11:37:09;6.10;99.90
14170;DHT22;63889;50.596;8.690;2023-02-26T11:39:37;6.10;99.90
14170;DHT22;63889;50.596;8.690;2023-02-26T11:42:03;6.30;99.90
14170;DHT22;63889;50.596;8.690;2023-02-26T11:44:38;6.30;99.90
14170;DHT22;63889;50.596;8.690;2023-02-26T11:47:10;5.90;99.90
14170;DHT22;63889;50.596;8.690;2023-02-26T11:49:41;5.60;99.90
14170;DHT22;63889;50.596;8.690;2023-02-26T11:54:56;5.50;99.90
14170;DHT22;63889;50.596;8.690;2023-02-26T11:57:26;5.80;99.90
14170;DHT22;63889;50.596;8.690;2023-02-26T11:59:56;5.70;99.90
14170;DHT22;63889;50.596;8.690;2023-02-26T12:02:24;6.00;99.90
14170;DHT22;63889;50.596;8.690;2023-02-26T12:04:54;6.30;99.90
14170;DHT22;63889;50.596;8.690;2023-02-26T12:07:21;6.60;99.90
14170;DHT22;63889;50.596;8.690;2023-02-26T12:09:47;6.70;99.90
14170;DHT22;63889;50.596;8.690;2023-02-26T12:12:51;6.60;99.90
14170;DHT22;63889;50.596;8.690;2023-02-26T12:15:50;6.50;99.90
14170;DHT22;63889;50.596;8.690;2023-02-26T12:18:34;6.20;99.90
14170;DHT22;63889;50.596;8.690;2023-02-26T12:21:27;6.30;99.90
14170;DHT22;63889;50.596;8.690;2023-02-26T12:29:23;5.90;99.90
14170;DHT22;63889;50.596;8.690;2023-02-26T12:51:18;6.20;99.90
14170;DHT22;63889;50.596;8.690;2023-02-26T13:13:53;6.00;99.90
14170;DHT22;63889;50.596;8.690;2023-02-26T13:16:35;6.70;99.90
14170;DHT22;63889;50.596;8.690;2023-02-26T13:21:41;6.60;99.90
14170;DHT22;63889;50.596;8.690;2023-02-26T13:24:16;6.20;99.00
14170;DHT22;63889;50.596;8.690;2023-02-26T13:26:44;6.00;99.90
14170;DHT22;63889;50.596;8.690;2023-02-26T13:29:15;6.50;99.90
14170;DHT22;63889;50.596;8.690;2023-02-26T13:31:55;6.60;99.90
14170;DHT22;63889;50.596;8.690;2023-02-26T13:34:38;6.50;99.90
14170;DHT22;63889;50.596;8.690;2023-02-26T13:37:19;6.00;99.90
14170;DHT22;63889;50.596;8.690;2023-02-26T13:45:36;5.80;99.90
14170;DHT22;63889;50.596;8.690;2023-02-26T13:48:15;6.00;99.90
14170;DHT22;63889;50.596;8.690;2023-02-26T13:55:50;6.20;99.90
14170;DHT22;63889;50.596;8.690;2023-02-26T14:01:18;6.20;99.90
14170;DHT22;63889;50.596;8.690;2023-02-26T14:04:04;6.30;99.90
14170;DHT22;63889;50.596;8.690;2023-02-26T14:15:26;6.30;99.90
14170;DHT22;63889;50.596;8.690;2023-02-26T14:18:01;6.10;99.90
14170;DHT22;63889;50.596;8.690;2023-02-26T14:20:28;5.80;99.90
14170;DHT22;63889;50.596;8.690;2023-02-26T14:25:44;5.70;99.90
14170;DHT22;63889;50.596;8.690;2023-02-26T14:28:40;5.60;99.90
14170;DHT22;63889;50.596;8.690;2023-02-26T14:31:17;5.60;99.90
14170;DHT22;63889;50.596;8.690;2023-02-26T14:33:59;5.60;99.90
14170;DHT22;63889;50.596;8.690;2023-02-26T14:36:35;5.70;99.90
14170;DHT22;63889;50.596;8.690;2023-02-26T14:39:05;5.40;99.90
14170;DHT22;63889;50.596;8.690;2023-02-26T14:41:37;5.70;99.90
14170;DHT22;63889;50.596;8.690;2023-02-26T14:46:34;5.60;99.90
14170;DHT22;63889;50.596;8.690;2023-02-26T14:49:00;5.50;99.90
14170;DHT22;63889;50.596;8.690;2023-02-26T14:55:02;5.70;99.90
14170;DHT22;63889;50.596;8.690;2023-02-26T15:00:57;5.70;99.90
14170;DHT22;63889;50.596;8.690;2023-02-26T15:06:15;5.20;99.40
14170;DHT22;63889;50.596;8.690;2023-02-26T15:09:03;4.90;99.90
14170;DHT22;63889;50.596;8.690;2023-02-26T15:14:39;5.00;99.90
14170;DHT22;63889;50.596;8.690;2023-02-26T15:22:50;5.00;99.90
14170;DHT22;63889;50.596;8.690;2023-02-26T15:25:35;5.10;99.90
14170;DHT22;63889;50.596;8.690;2023-02-26T15:28:04;5.20;99.90
14170;DHT22;63889;50.596;8.690;2023-02-26T15:30:31;5.30;99.90
14170;DHT22;63889;50.596;8.690;2023-02-26T15:32:59;5.30;99.90
14170;DHT22;63889;50.596;8.690;2023-02-26T15:35:27;5.50;99.90
14170;DHT22;63889;50.596;8.690;2023-02-26T15:37:56;5.40;99.90
14170;DHT22;63889;50.596;8.690;2023-02-26T15:40:23;5.50;99.90
14170;DHT22;63889;50.596;8.690;2023-02-26T15:42:52;5.40;99.90
14170;DHT22;63889;50.596;8.690;2023-02-26T15:45:30;5.40;99.90
14170;DHT22;63889;50.596;8.690;2023-02-26T15:47:59;5.50;99.90
14170;DHT22;63889;50.596;8.690;2023-02-26T15:50:30;5.50;99.90
14170;DHT22;63889;50.596;8.690;2023-02-26T15:53:00;5.30;99.90
14170;DHT22;63889;50.596;8.690;2023-02-26T15:55:31;5.40;99.90
14170;DHT22;63889;50.596;8.690;2023-02-26T15:57:59;5.40;99.90
14170;DHT22;63889;50.596;8.690;2023-02-26T16:00:25;5.50;99.90
14170;DHT22;63889;50.596;8.690;2023-02-26T16:02:54;5.60;99.90
14170;DHT22;63889;50.596;8.690;2023-02-26T16:05:23;5.50;99.90
14170;DHT22;63889;50.596;8.690;2023-02-26T16:07:49;5.60;99.90
14170;DHT22;63889;50.596;8.690;2023-02-26T16:12:59;5.40;99.90
14170;DHT22;63889;50.596;8.690;2023-02-26T16:15:37;5.20;99.90
14170;DHT22;63889;50.596;8.690;2023-02-26T16:18:12;5.20;99.90
14170;DHT22;63889;50.596;8.690;2023-02-26T16:20:41;5.00;99.90
14170;DHT22;63889;50.596;8.690;2023-02-26T16:23:55;5.10;99.90
14170;DHT22;63889;50.596;8.690;2023-02-26T16:26:04;4.90;99.90
14170;DHT22;63889;50.596;8.690;2023-02-26T16:28:32;4.80;99.90
14170;DHT22;63889;50.596;8.690;2023-02-26T16:31:00;4.80;99.90
14170;DHT22;63889;50.596;8.690;2023-02-26T16:33:32;4.60;99.90
14170;DHT22;63889;50.596;8.690;2023-02-26T16:36:12;4.60;99.90
14170;DHT22;63889;50.596;8.690;2023-02-26T16:38:48;4.60;99.90
14170;DHT22;63889;50.596;8.690;2023-02-26T16:41:14;4.40;99.90
14170;DHT22;63889;50.596;8.690;2023-02-26T16:43:50;4.40;99.90
14170;DHT22;63889;50.596;8.690;2023-02-26T16:46:20;4.30;99.90
14170;DHT22;63889;50.596;8.690;2023-02-26T16:48:55;4.30;99.90
14170;DHT22;63889;50.596;8.690;2023-02-26T16:51:25;4.40;99.90
14170;DHT22;63889;50.596;8.690;2023-02-26T16:53:57;4.30;99.90
14170;DHT22;63889;50.596;8.690;2023-02-26T16:56:30;4.40;99.90
14170;DHT22;63889;50.596;8.690;2023-02-26T16:59:18;4.50;99.90
14170;DHT22;63889;50.596;8.690;2023-02-26T17:01:53;4.40;99.90
14170;DHT22;63889;50.596;8.690;2023-02-26T17:04:23;4.40;99.90
14170;DHT22;63889;50.596;8.690;2023-02-26T17:06:51;4.50;99.90
14170;DHT22;63889;50.596;8.690;2023-02-26T17:09:35;4.30;99.90
14170;DHT22;63889;50.596;8.690;2023-02-26T17:12:13;4.30;99.90
14170;DHT22;63889;50.596;8.690;2023-02-26T17:14:42;4.30;99.90
14170;DHT22;63889;50.596;8.690;2023-02-26T17:17:09;4.20;99.90
14170;DHT22;63889;50.596;8.690;2023-02-26T17:19:35;4.10;99.90
14170;DHT22;63889;50.596;8.690;2023-02-26T17:22:01;4.10;99.90
14170;DHT22;63889;50.596;8.690;2023-02-26T17:26:56;4.10;99.90
14170;DHT22;63889;50.596;8.690;2023-02-26T17:31:54;3.80;99.90
14170;DHT22;63889;50.596;8.690;2023-02-26T17:34:20;3.80;99.90
14170;DHT22;63889;50.596;8.690;2023-02-26T17:36:47;3.80;99.90
14170;DHT22;63889;50.596;8.690;2023-02-26T17:39:13;3.90;99.90
14170;DHT22;63889;50.596;8.690;2023-02-26T17:41:42;3.80;99.90
14170;DHT22;63889;50.596;8.690;2023-02-26T17:44:08;3.90;99.90
14170;DHT22;63889;50.596;8.690;2023-02-26T17:46:33;3.80;99.90
14170;DHT22;63889;50.596;8.690;2023-02-26T17:48:59;3.50;99.90
14170;DHT22;63889;50.596;8.690;2023-02-26T17:51:24;3.40;99.90
14170;DHT22;63889;50.596;8.690;2023-02-26T17:53:51;3.50;99.90
14170;DHT22;63889;50.596;8.690;2023-02-26T17:56:25;3.70;99.90
14170;DHT22;63889;50.596;8.690;2023-02-26T17:58:53;3.80;99.90
14170;DHT22;63889;50.596;8.690;2023-02-26T18:01:19;3.70;99.90
14170;DHT22;63889;50.596;8.690;2023-02-26T18:03:45;3.60;99.90
14170;DHT22;63889;50.596;8.690;2023-02-26T18:06:13;3.70;99.90
14170;DHT22;63889;50.596;8.690;2023-02-26T18:08:39;3.80;99.90
14170;DHT22;63889;50.596;8.690;2023-02-26T18:11:05;3.80;99.90
14170;DHT22;63889;50.596;8.690;2023-02-26T18:13:31;3.70;99.90
14170;DHT22;63889;50.596;8.690;2023-02-26T18:15:58;3.70;99.90
14170;DHT22;63889;50.596;8.690;2023-02-26T18:18:27;3.70;99.90
14170;DHT22;63889;50.596;8.690;2023-02-26T18:20:53;3.80;99.90
14170;DHT22;63889;50.596;8.690;2023-02-26T18:23:19;3.80;99.90
14170;DHT22;63889;50.596;8.690;2023-02-26T18:25:46;3.80;99.90
14170;DHT22;63889;50.596;8.690;2023-02-26T18:30:45;3.90;99.90
14170;DHT22;63889;50.596;8.690;2023-02-26T18:33:11;3.80;99.90
14170;DHT22;63889;50.596;8.690;2023-02-26T18:35:38;3.90;99.90
14170;DHT22;63889;50.596;8.690;2023-02-26T18:38:11;4.00;99.90
14170;DHT22;63889;50.596;8.690;2023-02-26T18:40:37;4.00;99.90
14170;DHT22;63889;50.596;8.690;2023-02-26T18:43:02;3.90;99.90
14170;DHT22;63889;50.596;8.690;2023-02-26T18:45:28;3.90;99.90
14170;DHT22;63889;50.596;8.690;2023-02-26T18:51:16;3.90;99.90
14170;DHT22;63889;50.596;8.690;2023-02-26T18:53:41;3.80;99.90
14170;DHT22;63889;50.596;8.690;2023-02-26T18:56:07;3.80;99.90
14170;DHT22;63889;50.596;8.690;2023-02-26T18:58:32;3.70;99.90
14170;DHT22;63889;50.596;8.690;2023-02-26T19:00:58;3.80;99.90
14170;DHT22;63889;50.596;8.690;2023-02-26T19:03:24;3.70;99.90
14170;DHT22;63889;50.596;8.690;2023-02-26T19:06:00;3.70;99.90